createdAt,value
2022-09-30T00:03:29.000Z,4.86
2022-09-30T00:08:24.000Z,4.78
2022-09-30T00:13:19.000Z,4.9
2022-09-30T00:18:13.000Z,4.97
2022-09-30T00:23:08.000Z,4.83
2022-09-30T00:28:02.000Z,4.84
2022-09-30T00:32:57.000Z,4.8
2022-09-30T00:37:51.000Z,4.71
2022-09-30T00:42:45.000Z,4.61
2022-09-30T00:47:40.000Z,4.63
2022-09-30T00:52:34.000Z,4.49
2022-09-30T00:57:28.000Z,4.4
2022-09-30T01:02:23.000Z,4.32
2022-09-30T01:07:17.000Z,4.29
2022-09-30T01:12:11.000Z,4.25
2022-09-30T01:17:06.000Z,4.23
2022-09-30T01:22:01.000Z,4.19
2022-09-30T01:26:55.000Z,4.14
2022-09-30T01:31:50.000Z,4.17
2022-09-30T01:36:44.000Z,4.18
2022-09-30T01:41:39.000Z,4.04
2022-09-30T01:46:33.000Z,4.06
2022-09-30T01:51:28.000Z,4
2022-09-30T01:56:22.000Z,4.06
2022-09-30T02:01:19.000Z,4
2022-09-30T02:06:09.000Z,4
2022-09-30T02:11:04.000Z,3.95
2022-09-30T02:15:58.000Z,3.83
2022-09-30T02:20:53.000Z,3.8
2022-09-30T02:25:47.000Z,3.7
2022-09-30T02:30:42.000Z,3.62
2022-09-30T02:35:36.000Z,3.62
2022-09-30T02:40:31.000Z,3.6
2022-09-30T02:45:25.000Z,3.57
2022-09-30T02:50:20.000Z,3.56
2022-09-30T02:55:14.000Z,3.54
2022-09-30T03:00:09.000Z,3.56
2022-09-30T03:05:04.000Z,3.42
2022-09-30T03:09:58.000Z,3.53
2022-09-30T03:14:53.000Z,3.64
2022-09-30T03:19:46.000Z,3.81
2022-09-30T03:24:41.000Z,3.92
2022-09-30T03:29:35.000Z,4.02
2022-09-30T03:34:30.000Z,4.1
2022-09-30T03:39:26.000Z,4.06
2022-09-30T03:44:19.000Z,4.01
2022-09-30T03:49:14.000Z,3.77
2022-09-30T03:54:09.000Z,3.76
2022-09-30T03:59:03.000Z,3.74
2022-09-30T04:03:58.000Z,3.84
2022-09-30T04:08:52.000Z,3.73
2022-09-30T04:13:47.000Z,3.66
2022-09-30T04:18:41.000Z,3.58
2022-09-30T04:23:36.000Z,3.45
2022-09-30T04:28:30.000Z,3.37
2022-09-30T04:33:25.000Z,3.15
2022-09-30T04:38:19.000Z,3.11
2022-09-30T04:43:14.000Z,3.02
2022-09-30T04:48:08.000Z,2.91
2022-09-30T04:53:02.000Z,2.82
2022-09-30T04:57:57.000Z,2.72
2022-09-30T05:02:51.000Z,2.77
2022-09-30T05:07:46.000Z,2.86
2022-09-30T05:12:40.000Z,2.79
2022-09-30T05:17:35.000Z,2.87
2022-09-30T05:22:30.000Z,2.98
2022-09-30T05:27:24.000Z,3.13
2022-09-30T05:32:18.000Z,3.06
2022-09-30T05:37:13.000Z,3.21
2022-09-30T05:42:07.000Z,3.35
2022-09-30T05:47:02.000Z,3.48
2022-09-30T05:51:57.000Z,3.49
2022-09-30T05:56:51.000Z,3.56
2022-09-30T06:01:46.000Z,3.93
2022-09-30T06:06:41.000Z,4.07
2022-09-30T06:11:35.000Z,4.21
2022-09-30T06:16:30.000Z,4.29
2022-09-30T06:21:24.000Z,4.59
2022-09-30T06:26:18.000Z,4.54
2022-09-30T06:31:13.000Z,4.62
2022-09-30T06:36:07.000Z,4.92
2022-09-30T06:41:02.000Z,4.63
2022-09-30T06:45:58.000Z,4.77
2022-09-30T06:50:51.000Z,4.71
2022-09-30T06:55:46.000Z,5.01
2022-09-30T07:00:40.000Z,5.5
2022-09-30T07:05:34.000Z,5.66
2022-09-30T07:10:36.000Z,5.53
2022-09-30T07:15:23.000Z,5.18
2022-09-30T07:20:17.000Z,5.41
2022-09-30T07:25:12.000Z,5.64
2022-09-30T07:30:06.000Z,5.75
2022-09-30T07:35:00.000Z,5.99
2022-09-30T07:39:55.000Z,6.27
2022-09-30T07:44:49.000Z,6.76
2022-09-30T07:49:44.000Z,6.91
2022-09-30T07:54:39.000Z,6.74
2022-09-30T07:59:33.000Z,6.92
2022-09-30T08:04:27.000Z,6.93
2022-09-30T08:09:22.000Z,7.8
2022-09-30T08:14:15.000Z,8.02
2022-09-30T08:19:10.000Z,7.96
2022-09-30T08:24:05.000Z,8.51
2022-09-30T08:29:00.000Z,8.34
2022-09-30T08:33:54.000Z,8.45
2022-09-30T08:38:49.000Z,9.21
2022-09-30T08:43:44.000Z,8.86
2022-09-30T08:48:39.000Z,9.27
2022-09-30T08:53:34.000Z,10.04
2022-09-30T08:58:29.000Z,10.04
2022-09-30T09:03:24.000Z,10.07
2022-09-30T09:08:19.000Z,9.3
2022-09-30T09:13:14.000Z,9.9
2022-09-30T09:18:09.000Z,12.44
2022-09-30T09:23:04.000Z,13.29
2022-09-30T09:28:03.000Z,16.41
2022-09-30T09:32:55.000Z,17.74
2022-09-30T09:37:51.000Z,17.03
2022-09-30T09:42:47.000Z,18.48
2022-09-30T09:47:42.000Z,18.74
2022-09-30T09:52:38.000Z,18.02
2022-09-30T09:57:33.000Z,19.28
2022-09-30T10:02:26.000Z,18.27
2022-09-30T10:07:21.000Z,20.81
2022-09-30T10:12:17.000Z,21.21
2022-09-30T10:17:13.000Z,21.32
2022-09-30T10:22:08.000Z,22.35
2022-09-30T10:27:03.000Z,17.43
2022-09-30T10:31:58.000Z,20.34
2022-09-30T10:36:56.000Z,21.82
2022-09-30T10:41:48.000Z,22.51
2022-09-30T10:46:43.000Z,22.35
2022-09-30T10:51:38.000Z,23.16
2022-09-30T10:56:33.000Z,20.9
2022-09-30T11:01:28.000Z,22.59
2022-09-30T11:06:23.000Z,21.76
2022-09-30T11:11:18.000Z,23.16
2022-09-30T11:16:13.000Z,21.54
2022-09-30T11:21:08.000Z,22.25
2022-09-30T11:26:01.000Z,23.45
2022-09-30T11:30:56.000Z,22.17
2022-09-30T11:35:51.000Z,23.78
2022-09-30T11:40:46.000Z,23.67
2022-09-30T11:45:41.000Z,23.06
2022-09-30T11:50:36.000Z,23.48
2022-09-30T11:55:30.000Z,24.65
2022-09-30T12:00:25.000Z,25.08
2022-09-30T12:05:20.000Z,23.39
2022-09-30T12:10:15.000Z,24.2
2022-09-30T12:15:10.000Z,23.7
2022-09-30T12:20:04.000Z,25.7
2022-09-30T12:25:00.000Z,24.45
2022-09-30T12:29:55.000Z,22.78
2022-09-30T12:34:49.000Z,22.7
2022-09-30T12:39:43.000Z,23.83
2022-09-30T12:44:38.000Z,24.78
2022-09-30T12:49:33.000Z,25.14
2022-09-30T12:54:27.000Z,24.68
2022-09-30T12:59:22.000Z,26.44
2022-09-30T13:04:17.000Z,29.15
2022-09-30T13:09:13.000Z,23.69
2022-09-30T13:14:07.000Z,26.79
2022-09-30T13:19:03.000Z,25.43
2022-09-30T13:23:57.000Z,26.78
2022-09-30T13:28:51.000Z,26.71
2022-09-30T13:33:46.000Z,23.34
2022-09-30T13:38:41.000Z,25.38
2022-09-30T13:43:36.000Z,27.42
2022-09-30T13:48:31.000Z,26.27
2022-09-30T13:53:24.000Z,25.64
2022-09-30T13:58:17.000Z,26.37
2022-09-30T14:03:12.000Z,26.68
2022-09-30T14:08:07.000Z,27.5
2022-09-30T14:13:02.000Z,29.06
2022-09-30T14:17:57.000Z,27.39
2022-09-30T14:22:51.000Z,26.93
2022-09-30T14:27:45.000Z,25.61
2022-09-30T14:32:40.000Z,26.05
2022-09-30T14:37:35.000Z,26.25
2022-09-30T14:42:27.000Z,26.09
2022-09-30T14:47:22.000Z,25.79
2022-09-30T14:52:17.000Z,23.44
2022-09-30T14:57:11.000Z,26.2
2022-09-30T15:02:06.000Z,24.77
2022-09-30T15:07:01.000Z,24.53
2022-09-30T15:11:55.000Z,24.16
2022-09-30T15:16:49.000Z,24.38
2022-09-30T15:21:44.000Z,25.61
2022-09-30T15:26:39.000Z,23.49
2022-09-30T15:31:34.000Z,25.17
2022-09-30T15:36:28.000Z,25.58
2022-09-30T15:41:22.000Z,23.07
2022-09-30T15:46:16.000Z,23.31
2022-09-30T15:51:11.000Z,20.84
2022-09-30T15:56:05.000Z,21.73
2022-09-30T16:01:00.000Z,22.27
2022-09-30T16:05:54.000Z,21.31
2022-09-30T16:10:48.000Z,20.53
2022-09-30T16:15:38.000Z,20.54
2022-09-30T16:20:33.000Z,22.65
2022-09-30T16:25:27.000Z,20.79
2022-09-30T16:30:22.000Z,21.26
2022-09-30T16:35:16.000Z,20
2022-09-30T16:40:11.000Z,21.37
2022-09-30T16:45:05.000Z,21.48
2022-09-30T16:49:59.000Z,20.25
2022-09-30T16:54:53.000Z,19.06
2022-09-30T16:59:47.000Z,16.14
2022-09-30T17:04:41.000Z,15.31
2022-09-30T17:09:35.000Z,14.84
2022-09-30T17:14:27.000Z,14.35
2022-09-30T17:19:21.000Z,14.38
2022-09-30T17:24:16.000Z,14.34
2022-09-30T17:29:10.000Z,14.13
2022-09-30T17:34:05.000Z,13.7
2022-09-30T17:38:59.000Z,13.4
2022-09-30T17:43:53.000Z,13.22
2022-09-30T17:48:48.000Z,12.95
2022-09-30T17:53:42.000Z,12.72
2022-09-30T17:58:37.000Z,12.59
2022-09-30T18:03:31.000Z,12.31
2022-09-30T18:08:26.000Z,11.87
2022-09-30T18:13:20.000Z,11.63
2022-09-30T18:18:15.000Z,11.63
2022-09-30T18:23:10.000Z,11.42
2022-09-30T18:28:04.000Z,11.36
2022-09-30T18:32:59.000Z,11.43
2022-09-30T18:37:53.000Z,11.19
2022-09-30T18:42:48.000Z,11.44
2022-09-30T18:47:42.000Z,11.58
2022-09-30T18:52:37.000Z,11.7
2022-09-30T18:57:32.000Z,11.53
2022-09-30T19:02:26.000Z,11.7
2022-09-30T19:07:20.000Z,11.55
2022-09-30T19:12:15.000Z,11.47
2022-09-30T19:17:10.000Z,11.24
2022-09-30T19:22:04.000Z,11.28
2022-09-30T19:26:58.000Z,11.18
2022-09-30T19:31:52.000Z,11.13
2022-09-30T19:36:47.000Z,11.3
2022-09-30T19:41:42.000Z,10.83
2022-09-30T19:46:37.000Z,10.64
2022-09-30T19:51:30.000Z,10.92
2022-09-30T19:56:25.000Z,10.64
2022-09-30T20:01:18.000Z,10.32
2022-09-30T20:06:13.000Z,10.22
2022-09-30T20:11:08.000Z,10.51
2022-09-30T20:16:02.000Z,10.74
2022-09-30T20:20:57.000Z,10.63
2022-09-30T20:25:51.000Z,10.43
2022-09-30T20:30:45.000Z,10.37
2022-09-30T20:35:40.000Z,10.54
2022-09-30T20:40:35.000Z,10.54
2022-09-30T20:45:29.000Z,10.59
2022-09-30T20:50:24.000Z,10.46
2022-09-30T20:55:19.000Z,10.63
2022-09-30T21:00:13.000Z,10.98
2022-09-30T21:05:08.000Z,11.03
2022-09-30T21:10:02.000Z,11.02
2022-09-30T21:14:57.000Z,10.97
2022-09-30T21:19:55.000Z,11.23
2022-09-30T21:24:46.000Z,11.4
2022-09-30T21:29:41.000Z,11.36
2022-09-30T21:34:36.000Z,11.31
2022-09-30T21:39:31.000Z,11.34
2022-09-30T21:44:25.000Z,11.11
2022-09-30T21:49:19.000Z,11.15
2022-09-30T21:54:14.000Z,11.14
2022-09-30T21:59:08.000Z,11.23
2022-09-30T22:04:03.000Z,11.13
2022-09-30T22:08:58.000Z,11.11
2022-09-30T22:13:52.000Z,11.13
2022-09-30T22:18:47.000Z,11.08
2022-09-30T22:23:42.000Z,11.08
2022-09-30T22:28:35.000Z,11.09
2022-09-30T22:33:30.000Z,11.27
2022-09-30T22:38:25.000Z,11.15
2022-09-30T22:43:20.000Z,11.24
2022-09-30T22:48:14.000Z,11.33
2022-09-30T22:53:09.000Z,11.33
2022-09-30T22:58:01.000Z,11.32
2022-09-30T23:02:55.000Z,11.4
2022-09-30T23:07:48.000Z,11.38
2022-09-30T23:12:41.000Z,11.25
2022-09-30T23:17:35.000Z,11.39
2022-09-30T23:22:29.000Z,11.27
2022-09-30T23:27:24.000Z,11.32
2022-09-30T23:32:18.000Z,11.24
2022-09-30T23:37:13.000Z,11.28
2022-09-30T23:42:08.000Z,11.26
2022-09-30T23:47:03.000Z,11.22
2022-09-30T23:51:57.000Z,11.19
2022-09-30T23:56:52.000Z,11.37
